createdAt,value
2023-07-24T00:02:05.857Z,17.70
2023-07-24T00:05:03.822Z,13.65
2023-07-24T00:08:01.895Z,16.85
2023-07-24T00:11:00.233Z,17.08
2023-07-24T00:13:58.253Z,13.95
2023-07-24T00:16:56.184Z,15.52
2023-07-24T00:19:54.241Z,14.38
2023-07-24T00:22:52.696Z,17.42
2023-07-24T00:25:50.694Z,11.63
2023-07-24T00:28:48.588Z,15.18
2023-07-24T00:31:46.688Z,14.27
2023-07-24T00:34:44.470Z,14.38
2023-07-24T00:37:42.305Z,12.25
2023-07-24T00:40:40.121Z,15.13
2023-07-24T00:43:37.982Z,15.57
2023-07-24T00:46:37.427Z,14.50
2023-07-24T00:49:35.654Z,12.05
2023-07-24T00:52:33.778Z,15.70
2023-07-24T00:55:32.052Z,17.15
2023-07-24T00:58:30.365Z,12.95
2023-07-24T01:01:28.740Z,18.15
2023-07-24T01:04:26.616Z,14.90
2023-07-24T01:07:24.527Z,19.33
2023-07-24T01:10:22.438Z,18.95
2023-07-24T01:13:26.714Z,13.60
2023-07-24T01:16:28.218Z,16.80
2023-07-24T01:19:40.267Z,12.75
2023-07-24T01:22:44.822Z,19.95
2023-07-24T01:25:55.654Z,20.73
2023-07-24T01:28:53.510Z,21.23
2023-07-24T01:31:51.418Z,20.75
2023-07-24T01:34:49.669Z,14.48
2023-07-24T01:37:48.883Z,18.95
2023-07-24T01:40:47.306Z,14.50
2023-07-24T01:43:45.664Z,16.38
2023-07-24T01:46:43.513Z,14.07
2023-07-24T01:49:41.588Z,41.00
2023-07-24T01:52:39.352Z,18.92
2023-07-24T01:55:37.364Z,20.40
2023-07-24T01:58:35.147Z,17.95
2023-07-24T02:01:33.346Z,16.85
2023-07-24T02:04:31.151Z,15.50
2023-07-24T02:07:29.046Z,13.05
2023-07-24T02:10:26.827Z,12.23
2023-07-24T02:13:24.794Z,12.95
2023-07-24T02:16:22.626Z,14.38
2023-07-24T02:19:20.538Z,13.82
2023-07-24T02:22:18.384Z,17.17
2023-07-24T02:25:16.382Z,10.60
2023-07-24T02:28:14.102Z,12.27
2023-07-24T02:31:11.994Z,13.45
2023-07-24T02:34:09.849Z,18.70
2023-07-24T02:37:07.794Z,19.25
2023-07-24T02:40:05.980Z,15.23
2023-07-24T02:43:03.980Z,17.27
2023-07-24T02:46:03.853Z,15.45
2023-07-24T02:49:01.827Z,13.80
2023-07-24T02:51:59.577Z,15.40
2023-07-24T02:54:57.445Z,15.75
2023-07-24T02:57:55.502Z,22.85
2023-07-24T03:00:53.376Z,13.55
2023-07-24T03:03:51.149Z,23.17
2023-07-24T03:06:49.053Z,17.60
2023-07-24T03:09:46.849Z,15.80
2023-07-24T03:12:44.769Z,14.45
2023-07-24T03:15:42.582Z,15.20
2023-07-24T03:18:40.493Z,19.63
2023-07-24T03:21:38.238Z,14.93
2023-07-24T03:24:37.172Z,15.95
2023-07-24T03:27:35.030Z,19.55
2023-07-24T03:30:32.954Z,15.85
2023-07-24T03:33:30.787Z,15.55
2023-07-24T03:36:31.150Z,21.35
2023-07-24T03:39:29.177Z,14.57
2023-07-24T03:42:29.374Z,30.42
2023-07-24T03:45:27.215Z,23.73
2023-07-24T03:48:25.107Z,24.55
2023-07-24T03:51:22.869Z,22.25
2023-07-24T03:54:20.725Z,16.38
2023-07-24T03:57:18.499Z,16.90
2023-07-24T04:00:16.423Z,23.75
2023-07-24T04:03:14.281Z,24.23
2023-07-24T04:06:12.251Z,23.60
2023-07-24T04:09:10.065Z,32.22
2023-07-24T04:12:08.126Z,25.23
2023-07-24T04:15:06.285Z,23.48
2023-07-24T04:18:04.273Z,30.55
2023-07-24T04:21:02.119Z,28.17
2023-07-24T04:24:00.025Z,26.05
2023-07-24T04:26:57.801Z,19.98
2023-07-24T04:29:55.725Z,22.08
2023-07-24T04:32:53.537Z,25.80
2023-07-24T04:35:51.483Z,27.65
2023-07-24T04:38:49.293Z,22.83
2023-07-24T04:41:47.446Z,22.77
2023-07-24T04:44:45.305Z,20.20
2023-07-24T04:47:43.759Z,28.52
2023-07-24T04:50:41.615Z,29.45
2023-07-24T04:53:39.587Z,21.85
2023-07-24T04:56:37.736Z,28.55
2023-07-24T04:59:35.644Z,22.33
2023-07-24T05:02:33.362Z,24.40
2023-07-24T05:05:33.181Z,22.25
2023-07-24T05:08:31.027Z,25.17
2023-07-24T05:11:28.967Z,30.30
2023-07-24T05:14:26.870Z,29.52
2023-07-24T05:17:24.787Z,26.17
2023-07-24T05:20:22.545Z,37.83
2023-07-24T05:23:20.622Z,33.95
2023-07-24T05:26:18.442Z,29.58
2023-07-24T05:29:16.344Z,26.35
2023-07-24T05:32:14.135Z,28.70
2023-07-24T05:35:12.074Z,34.80
2023-07-24T05:38:09.842Z,26.33
2023-07-24T05:41:07.709Z,33.05
2023-07-24T05:44:05.726Z,34.53
2023-07-24T05:47:03.619Z,32.17
2023-07-24T05:50:01.433Z,27.25
2023-07-24T05:52:59.348Z,28.25
2023-07-24T05:56:00.650Z,28.90
2023-07-24T05:58:58.570Z,22.15
2023-07-24T06:01:56.339Z,23.52
2023-07-24T06:04:54.284Z,28.52
2023-07-24T06:07:52.033Z,20.75
2023-07-24T06:10:50.974Z,22.48
2023-07-24T06:13:48.829Z,18.33
2023-07-24T06:16:46.777Z,20.38
2023-07-24T06:19:44.701Z,26.83
2023-07-24T06:22:42.604Z,20.42
2023-07-24T06:25:40.350Z,22.92
2023-07-24T06:28:38.197Z,21.05
2023-07-24T06:31:36.008Z,18.73
2023-07-24T06:34:33.945Z,22.08
2023-07-24T06:37:31.761Z,19.73
2023-07-24T06:40:29.705Z,17.30
2023-07-24T06:43:27.610Z,20.63
2023-07-24T06:46:25.450Z,17.73
2023-07-24T06:49:23.249Z,19.92
2023-07-24T06:52:21.108Z,27.50
2023-07-24T06:55:19.116Z,22.25
2023-07-24T06:58:16.990Z,30.70
2023-07-24T07:01:14.795Z,25.77
2023-07-24T07:04:12.754Z,28.67
2023-07-24T07:07:11.711Z,26.67
2023-07-24T07:10:10.008Z,29.05
2023-07-24T07:13:07.742Z,23.65
2023-07-24T07:16:05.977Z,21.50
2023-07-24T07:19:03.851Z,19.70
2023-07-24T07:22:01.763Z,21.63
2023-07-24T07:24:59.559Z,20.25
2023-07-24T07:27:57.419Z,20.40
2023-07-24T07:30:56.299Z,16.17
2023-07-24T07:33:54.202Z,20.10
2023-07-24T07:36:51.998Z,18.80
2023-07-24T07:39:49.937Z,16.55
2023-07-24T07:42:47.720Z,17.55
2023-07-24T07:45:45.601Z,14.93
2023-07-24T07:48:43.325Z,16.05
2023-07-24T07:51:41.234Z,14.43
2023-07-24T07:54:39.068Z,19.23
2023-07-24T07:57:38.008Z,18.70
2023-07-24T08:00:36.603Z,13.77
2023-07-24T08:03:34.999Z,16.60
2023-07-24T08:06:33.158Z,14.85
2023-07-24T08:09:31.540Z,20.48
2023-07-24T08:12:29.311Z,17.58
2023-07-24T08:15:27.217Z,18.27
2023-07-24T08:18:25.050Z,15.82
2023-07-24T08:21:22.947Z,13.05
2023-07-24T08:24:20.735Z,15.38
2023-07-24T08:27:18.938Z,17.83
2023-07-24T08:30:16.786Z,12.40
2023-07-24T08:33:15.154Z,16.33
2023-07-24T08:36:14.417Z,18.10
2023-07-24T08:39:12.401Z,19.27
2023-07-24T08:42:11.756Z,16.02
2023-07-24T08:45:15.476Z,19.73
2023-07-24T08:48:13.314Z,16.73
2023-07-24T08:51:13.946Z,14.13
2023-07-24T08:54:13.608Z,12.98
2023-07-24T08:57:11.464Z,14.15
2023-07-24T09:00:09.828Z,15.23
2023-07-24T09:03:07.844Z,17.05
2023-07-24T09:06:08.206Z,16.48
2023-07-24T09:09:15.733Z,16.08
2023-07-24T09:12:17.705Z,12.43
2023-07-24T09:15:15.598Z,14.80
2023-07-24T09:18:13.513Z,15.75
2023-07-24T09:21:13.906Z,18.45
2023-07-24T09:24:14.507Z,17.73
2023-07-24T09:27:13.899Z,15.35
2023-07-24T09:30:16.175Z,13.75
2023-07-24T09:33:14.111Z,15.30
2023-07-24T09:36:12.272Z,12.30
2023-07-24T09:39:12.471Z,15.38
2023-07-24T09:42:10.225Z,17.08
2023-07-24T09:45:09.950Z,13.75
2023-07-24T09:51:32.681Z,18.92
2023-07-24T09:54:42.481Z,14.93
2023-07-24T09:57:41.708Z,17.85
2023-07-24T10:00:39.548Z,18.70
2023-07-24T10:03:43.576Z,16.52
2023-07-24T10:06:42.952Z,17.58
2023-07-24T10:09:41.128Z,14.57
2023-07-24T10:12:39.562Z,15.77
2023-07-24T10:15:39.075Z,19.15
2023-07-24T10:18:43.532Z,13.85
2023-07-24T10:21:48.358Z,13.30
2023-07-24T10:24:46.321Z,16.60
2023-07-24T10:27:46.117Z,15.05
2023-07-24T10:30:45.745Z,21.15
2023-07-24T10:33:47.659Z,18.60
2023-07-24T10:36:45.551Z,22.17
2023-07-24T10:39:43.582Z,17.25
2023-07-24T10:42:41.339Z,13.98
2023-07-24T10:45:43.050Z,14.40
2023-07-24T10:48:46.255Z,13.25
2023-07-24T10:51:44.175Z,16.02
2023-07-24T10:54:41.942Z,20.98
2023-07-24T10:57:39.816Z,34.50
2023-07-24T11:00:37.714Z,10.77
2023-07-24T11:03:39.296Z,22.15
2023-07-24T11:06:37.462Z,15.43
2023-07-24T11:09:38.973Z,14.30
2023-07-24T11:12:41.002Z,17.23
2023-07-24T11:15:39.036Z,13.85
2023-07-24T11:18:54.719Z,17.23
2023-07-24T11:21:53.174Z,14.18
2023-07-24T11:24:50.982Z,14.38
2023-07-24T11:27:48.975Z,13.40
2023-07-24T11:30:46.759Z,13.00
2023-07-24T11:33:45.953Z,16.58
2023-07-24T11:36:43.852Z,13.20
2023-07-24T11:39:41.826Z,14.52
2023-07-24T11:42:41.095Z,15.00
2023-07-24T11:45:44.973Z,12.18
2023-07-24T11:48:43.815Z,15.48
2023-07-24T11:51:42.041Z,13.05
2023-07-24T11:54:39.859Z,13.95
2023-07-24T11:57:37.896Z,12.18
2023-07-24T12:00:38.001Z,14.82
2023-07-24T12:03:36.866Z,15.35
2023-07-24T12:06:34.805Z,17.23
2023-07-24T12:09:32.751Z,14.00
2023-07-24T12:12:47.578Z,14.85
2023-07-24T12:15:45.679Z,17.55
2023-07-24T12:18:43.557Z,16.73
2023-07-24T12:21:41.467Z,16.92
2023-07-24T12:24:39.264Z,23.50
2023-07-24T12:27:37.461Z,16.60
2023-07-24T12:30:35.505Z,16.60
2023-07-24T12:33:33.379Z,19.60
2023-07-24T12:36:31.157Z,14.30
2023-07-24T12:39:29.043Z,14.35
2023-07-24T12:42:27.476Z,18.88
2023-07-24T12:45:25.375Z,13.38
2023-07-24T12:48:23.193Z,13.55
2023-07-24T12:51:21.125Z,11.70
2023-07-24T12:54:25.969Z,16.70
2023-07-24T12:57:37.831Z,15.68
2023-07-24T13:00:35.604Z,13.95
2023-07-24T13:03:33.699Z,13.63
2023-07-24T13:06:32.012Z,12.32
2023-07-24T13:09:30.851Z,18.45
2023-07-24T13:12:28.655Z,19.52
2023-07-24T13:15:26.815Z,18.50
2023-07-24T13:18:29.043Z,19.13
2023-07-24T13:21:27.460Z,15.82
2023-07-24T13:24:25.313Z,19.83
2023-07-24T13:27:23.214Z,19.40
2023-07-24T13:30:20.982Z,20.17
2023-07-24T13:33:19.081Z,15.50
2023-07-24T13:36:18.462Z,14.57
2023-07-24T13:39:16.501Z,18.17
2023-07-24T13:42:14.322Z,16.10
2023-07-24T13:45:12.382Z,17.77
2023-07-24T13:48:10.231Z,30.17
2023-07-24T13:51:08.183Z,30.38
2023-07-24T13:54:05.964Z,27.17
2023-07-24T13:57:03.883Z,23.75
2023-07-24T14:00:01.789Z,25.15
2023-07-24T14:03:00.355Z,29.98
2023-07-24T14:05:59.087Z,31.05
2023-07-24T14:08:56.978Z,26.50
2023-07-24T14:11:54.771Z,24.92
2023-07-24T14:14:52.695Z,20.90
2023-07-24T14:17:50.543Z,22.95
2023-07-24T14:20:49.005Z,18.65
2023-07-24T14:23:46.747Z,26.17
2023-07-24T14:26:46.523Z,19.13
2023-07-24T14:29:44.353Z,18.38
2023-07-24T14:32:42.354Z,16.92
2023-07-24T14:35:40.201Z,17.88
2023-07-24T14:38:38.177Z,20.90
2023-07-24T14:41:36.804Z,18.70
2023-07-24T14:44:34.743Z,17.50
2023-07-24T14:47:33.511Z,21.25
2023-07-24T14:50:31.537Z,20.83
2023-07-24T14:53:29.317Z,21.05
2023-07-24T14:56:31.444Z,20.02
2023-07-24T14:59:37.938Z,19.48
2023-07-24T15:02:35.953Z,18.08
2023-07-24T15:05:33.910Z,15.82
2023-07-24T15:08:32.416Z,20.80
2023-07-24T15:11:30.680Z,19.73
2023-07-24T15:14:28.896Z,19.42
2023-07-24T15:17:26.738Z,16.60
2023-07-24T15:20:24.627Z,18.67
2023-07-24T15:23:22.436Z,22.88
2023-07-24T15:26:20.936Z,19.08
2023-07-24T15:29:19.824Z,17.55
2023-07-24T15:32:18.912Z,14.73
2023-07-24T15:35:16.786Z,15.55
2023-07-24T15:38:14.946Z,16.75
2023-07-24T15:41:12.922Z,16.17
2023-07-24T15:44:10.900Z,16.48
2023-07-24T15:47:08.771Z,16.10
2023-07-24T15:50:07.079Z,12.85
2023-07-24T15:53:04.883Z,20.88
2023-07-24T15:56:02.842Z,17.30
2023-07-24T15:59:00.640Z,12.50
2023-07-24T16:01:58.765Z,12.73
2023-07-24T16:04:57.476Z,20.85
2023-07-24T16:07:55.585Z,18.88
2023-07-24T16:10:53.389Z,18.65
2023-07-24T16:13:51.654Z,23.38
2023-07-24T16:16:49.548Z,18.73
2023-07-24T16:19:47.710Z,17.05
2023-07-24T16:22:45.523Z,18.70
2023-07-24T16:25:43.466Z,12.75
2023-07-24T16:28:41.236Z,22.00
2023-07-24T16:31:39.305Z,16.50
2023-07-24T16:34:38.201Z,15.07
2023-07-24T16:37:36.280Z,17.25
2023-07-24T16:40:34.090Z,19.60
2023-07-24T16:46:36.338Z,17.83
2023-07-24T16:49:34.272Z,17.13
2023-07-24T16:52:32.026Z,13.68
2023-07-24T16:55:30.483Z,15.48
2023-07-24T16:58:28.586Z,19.45
2023-07-24T17:01:27.475Z,17.52
2023-07-24T17:04:25.511Z,20.17
2023-07-24T17:07:23.379Z,17.77
2023-07-24T17:10:21.183Z,16.58
2023-07-24T17:13:19.438Z,13.02
2023-07-24T17:16:19.613Z,18.02
2023-07-24T17:19:17.983Z,18.67
2023-07-24T17:22:15.780Z,13.98
2023-07-24T17:25:13.722Z,16.20
2023-07-24T17:28:11.522Z,14.93
2023-07-24T17:31:09.532Z,13.98
2023-07-24T17:34:07.359Z,18.52
2023-07-24T17:37:05.578Z,16.73
2023-07-24T17:40:04.654Z,14.65
2023-07-24T17:43:02.713Z,17.35
2023-07-24T17:46:00.495Z,21.60
2023-07-24T17:48:58.445Z,18.30
2023-07-24T17:51:56.246Z,15.68
2023-07-24T17:54:54.266Z,16.73
2023-07-24T17:57:53.934Z,17.35
2023-07-24T18:00:51.788Z,18.35
2023-07-24T18:03:49.749Z,15.80
2023-07-24T18:06:48.926Z,17.25
2023-07-24T18:09:46.760Z,14.30
2023-07-24T18:12:46.456Z,15.35
2023-07-24T18:15:44.212Z,21.67
2023-07-24T18:18:42.093Z,15.45
2023-07-24T18:21:40.135Z,15.43
2023-07-24T18:24:38.032Z,21.10
2023-07-24T18:27:36.563Z,15.25
2023-07-24T18:30:34.538Z,15.38
2023-07-24T18:33:32.436Z,14.93
2023-07-24T18:36:30.379Z,12.13
2023-07-24T18:39:28.132Z,17.85
2023-07-24T18:42:26.190Z,15.20
2023-07-24T18:45:23.995Z,12.95
2023-07-24T18:48:21.996Z,14.98
2023-07-24T18:51:21.352Z,11.43
2023-07-24T18:54:19.485Z,13.13
2023-07-24T18:57:17.307Z,12.55
2023-07-24T19:00:18.606Z,17.55
2023-07-24T19:03:16.505Z,13.30
2023-07-24T19:06:15.535Z,12.73
2023-07-24T19:09:13.316Z,13.57
2023-07-24T19:12:11.687Z,15.23
2023-07-24T19:15:10.183Z,13.27
2023-07-24T19:18:08.050Z,18.55
2023-07-24T19:21:06.220Z,13.60
2023-07-24T19:24:04.529Z,15.32
2023-07-24T19:27:02.298Z,13.85
2023-07-24T19:30:04.028Z,11.38
2023-07-24T19:33:01.847Z,12.50
2023-07-24T19:36:01.820Z,13.68
2023-07-24T19:38:59.662Z,15.13
2023-07-24T19:41:57.565Z,16.92
2023-07-24T19:44:55.384Z,11.95
2023-07-24T19:47:53.965Z,12.90
2023-07-24T19:50:56.285Z,14.52
2023-07-24T19:53:54.160Z,13.15
2023-07-24T19:56:51.992Z,14.90
2023-07-24T19:59:49.863Z,11.88
2023-07-24T20:02:50.742Z,13.93
2023-07-24T20:06:07.339Z,13.52
2023-07-24T20:09:05.616Z,13.65
2023-07-24T20:12:04.149Z,13.80
2023-07-24T20:15:01.923Z,11.85
2023-07-24T20:17:59.957Z,13.23
2023-07-24T20:20:58.080Z,11.32
2023-07-24T20:23:56.519Z,15.60
2023-07-24T20:26:54.283Z,12.48
2023-07-24T20:29:52.183Z,11.07
2023-07-24T20:32:51.135Z,14.52
2023-07-24T20:35:49.203Z,13.48
2023-07-24T20:38:47.099Z,13.25
2023-07-24T20:41:46.212Z,10.35
2023-07-24T20:44:51.540Z,14.20
2023-07-24T20:47:49.962Z,13.38
2023-07-24T20:50:48.086Z,13.25
2023-07-24T20:53:46.037Z,14.32
2023-07-24T20:56:43.815Z,14.77
2023-07-24T20:59:41.724Z,13.68
2023-07-24T21:02:39.785Z,11.65
2023-07-24T21:05:38.222Z,13.55
2023-07-24T21:08:36.306Z,10.40
2023-07-24T21:11:34.221Z,12.13
2023-07-24T21:14:32.063Z,14.50
2023-07-24T21:17:30.025Z,13.52
2023-07-24T21:20:27.873Z,15.77
2023-07-24T21:23:27.455Z,14.30
2023-07-24T21:26:27.260Z,12.75
2023-07-24T21:29:26.907Z,12.85
2023-07-24T21:32:24.772Z,13.93
2023-07-24T21:35:22.823Z,11.90
2023-07-24T21:38:20.571Z,14.15
2023-07-24T21:41:18.429Z,13.13
2023-07-24T21:44:16.322Z,11.27
2023-07-24T21:47:14.272Z,14.00
2023-07-24T21:50:12.049Z,13.23
2023-07-24T21:53:10.697Z,24.40
2023-07-24T21:56:08.478Z,11.50
2023-07-24T21:59:06.376Z,13.75
2023-07-24T22:02:04.272Z,14.38
2023-07-24T22:05:02.303Z,9.82
2023-07-24T22:08:00.110Z,11.18
2023-07-24T22:10:58.008Z,13.43
2023-07-24T22:13:55.935Z,13.65
2023-07-24T22:16:53.889Z,14.23
2023-07-24T22:19:51.849Z,13.18
2023-07-24T22:22:50.190Z,12.18
2023-07-24T22:25:48.032Z,12.10
2023-07-24T22:28:45.904Z,11.75
2023-07-24T22:31:43.709Z,13.73
2023-07-24T22:34:41.625Z,11.80
2023-07-24T22:37:39.419Z,13.50
2023-07-24T22:40:37.289Z,14.90
2023-07-24T22:43:35.052Z,12.65
2023-07-24T22:46:32.984Z,18.23
2023-07-24T22:49:30.887Z,13.65
2023-07-24T22:52:28.770Z,16.55
2023-07-24T22:55:26.554Z,14.15
2023-07-24T22:58:24.860Z,12.50
2023-07-24T23:01:26.581Z,13.07
2023-07-24T23:04:26.232Z,13.70
2023-07-24T23:07:24.165Z,14.63
2023-07-24T23:10:22.071Z,13.73
2023-07-24T23:13:20.014Z,14.30
2023-07-24T23:16:17.909Z,16.58
2023-07-24T23:19:15.793Z,14.57
2023-07-24T23:22:13.658Z,14.10
2023-07-24T23:25:11.455Z,17.88
2023-07-24T23:28:09.307Z,13.23
2023-07-24T23:31:08.167Z,15.13
2023-07-24T23:34:06.607Z,14.27
2023-07-24T23:37:04.443Z,17.13
2023-07-24T23:40:02.366Z,14.75
2023-07-24T23:43:00.107Z,14.02
2023-07-24T23:45:58.070Z,15.85
2023-07-24T23:48:55.904Z,12.32
2023-07-24T23:51:53.780Z,11.68
2023-07-24T23:54:51.512Z,13.93
2023-07-24T23:57:49.357Z,10.85
